createdAt,value
2018-08-24T00:01:33.700Z,58.14
2018-08-24T00:04:16.907Z,58.38
2018-08-24T00:06:54.664Z,58.66
2018-08-24T00:09:34.072Z,59.10
2018-08-24T00:12:15.595Z,59.01
2018-08-24T00:15:03.141Z,58.54
2018-08-24T00:17:47.633Z,58.94
2018-08-24T00:20:28.988Z,58.95
2018-08-24T00:23:04.990Z,58.82
2018-08-24T00:25:44.847Z,58.78
2018-08-24T00:28:27.304Z,59.12
2018-08-24T00:39:42.619Z,59.54
2018-08-24T00:42:13.406Z,59.60
2018-08-24T00:44:43.164Z,60.08
2018-08-24T00:47:12.574Z,59.59
2018-08-24T00:49:42.645Z,61.01
2018-08-24T00:54:47.288Z,61.00
2018-08-24T00:57:16.298Z,60.76
2018-08-24T00:59:45.147Z,60.28
2018-08-24T01:02:14.035Z,60.69
2018-08-24T01:04:42.888Z,60.04
2018-08-24T01:07:14.001Z,59.79
2018-08-24T01:09:43.304Z,60.34
2018-08-24T01:12:15.773Z,60.44
2018-08-24T01:14:45.802Z,60.29
2018-08-24T01:17:19.996Z,60.41
2018-08-24T01:19:49.133Z,59.66
2018-08-24T01:22:24.750Z,60.03
2018-08-24T01:24:53.658Z,60.93
2018-08-24T01:27:22.468Z,60.45
2018-08-24T01:29:51.808Z,60.03
2018-08-24T01:32:20.747Z,59.75
2018-08-24T01:34:49.706Z,61.43
2018-08-24T01:37:18.710Z,61.51
2018-08-24T01:39:47.602Z,61.94
2018-08-24T01:42:16.777Z,61.08
2018-08-24T01:44:45.626Z,60.14
2018-08-24T01:47:14.518Z,60.43
2018-08-24T01:49:43.379Z,60.62
2018-08-24T01:52:12.488Z,61.00
2018-08-24T01:54:41.475Z,61.02
2018-08-24T01:57:10.469Z,61.46
2018-08-24T01:59:39.523Z,61.41
2018-08-24T02:02:08.451Z,60.60
2018-08-24T02:04:37.388Z,61.18
2018-08-24T02:07:06.302Z,61.92
2018-08-24T02:09:35.267Z,61.52
2018-08-24T02:12:04.388Z,62.40
2018-08-24T02:14:38.269Z,62.05
2018-08-24T02:17:11.292Z,62.67
2018-08-24T02:19:45.425Z,63.06
2018-08-24T02:22:17.109Z,64.43
2018-08-24T02:27:20.773Z,62.67
2018-08-24T02:29:53.796Z,62.42
2018-08-24T02:32:22.699Z,62.59
2018-08-24T02:34:51.528Z,62.64
2018-08-24T02:37:20.434Z,62.49
2018-08-24T02:39:49.334Z,62.50
2018-08-24T02:42:18.165Z,61.76
2018-08-24T02:44:47.024Z,62.47
2018-08-24T02:47:15.924Z,62.74
2018-08-24T02:49:45.248Z,63.29
2018-08-24T02:52:14.139Z,62.77
2018-08-24T02:54:43.001Z,62.04
2018-08-24T02:57:11.863Z,62.37
2018-08-24T02:59:40.774Z,61.71
2018-08-24T03:02:09.739Z,62.54
2018-08-24T03:04:38.506Z,61.63
2018-08-24T03:07:07.366Z,62.81
2018-08-24T03:09:36.319Z,62.52
2018-08-24T03:12:05.126Z,62.39
2018-08-24T03:14:34.015Z,62.42
2018-08-24T03:17:07.864Z,62.45
2018-08-24T03:19:36.793Z,62.78
2018-08-24T03:22:16.310Z,62.57
2018-08-24T03:24:52.960Z,63.31
2018-08-24T03:27:31.733Z,62.92
2018-08-24T03:30:14.457Z,61.89
2018-08-24T03:32:47.819Z,62.52
2018-08-24T03:35:26.542Z,63.02
2018-08-24T03:38:10.322Z,63.47
2018-08-24T03:40:51.520Z,63.39
2018-08-24T03:43:29.828Z,63.00
2018-08-24T03:46:08.081Z,62.62
2018-08-24T03:48:45.641Z,63.12
2018-08-24T03:51:18.927Z,63.18
2018-08-24T03:53:55.399Z,63.35
2018-08-24T03:56:33.100Z,64.11
2018-08-24T03:59:09.135Z,63.36
2018-08-24T04:01:45.935Z,63.62
2018-08-24T04:04:21.365Z,63.17
2018-08-24T04:06:53.033Z,63.77
2018-08-24T04:09:27.022Z,62.66
2018-08-24T04:14:42.233Z,62.64
2018-08-24T04:17:20.775Z,63.25
2018-08-24T04:19:59.972Z,62.43
2018-08-24T04:22:37.460Z,62.46
2018-08-24T04:25:18.971Z,64.08
2018-08-24T04:27:56.081Z,63.97
2018-08-24T04:30:38.577Z,64.90
2018-08-24T04:33:17.873Z,63.64
2018-08-24T04:35:52.781Z,63.80
2018-08-24T04:38:34.057Z,64.19
2018-08-24T04:41:08.537Z,64.44
2018-08-24T04:43:49.316Z,63.91
2018-08-24T04:46:32.077Z,62.87
2018-08-24T04:49:11.689Z,62.18
2018-08-24T04:51:49.248Z,61.59
2018-08-24T04:54:27.007Z,62.10
2018-08-24T04:59:48.523Z,62.54
2018-08-24T05:02:33.793Z,62.49
2018-08-24T05:05:08.668Z,61.84
2018-08-24T05:07:44.759Z,61.86
2018-08-24T05:10:22.532Z,60.15
2018-08-24T05:13:04.358Z,60.88
2018-08-24T05:15:44.931Z,60.11
2018-08-24T05:18:21.635Z,58.90
2018-08-24T05:21:03.073Z,58.69
2018-08-24T05:23:43.737Z,58.66
2018-08-24T05:26:18.414Z,58.81
2018-08-24T05:29:02.954Z,57.16
2018-08-24T05:31:44.816Z,57.33
2018-08-24T05:34:19.215Z,57.32
2018-08-24T05:37:01.783Z,56.62
2018-08-24T05:39:37.160Z,57.31
2018-08-24T05:47:41.994Z,56.02
2018-08-24T05:50:22.048Z,56.99
2018-08-24T05:53:01.499Z,55.77
2018-08-24T05:55:43.326Z,55.61
2018-08-24T05:58:22.244Z,56.05
2018-08-24T06:01:03.879Z,55.62
2018-08-24T06:03:42.107Z,55.59
2018-08-24T06:06:22.877Z,54.04
2018-08-24T06:09:04.847Z,53.39
2018-08-24T06:11:41.382Z,53.24
2018-08-24T06:19:49.023Z,54.26
2018-08-24T06:22:26.589Z,53.50
2018-08-24T06:25:06.201Z,50.21
2018-08-24T06:27:45.139Z,51.76
2018-08-24T06:30:22.070Z,50.38
2018-08-24T06:32:56.845Z,51.05
2018-08-24T06:35:31.153Z,50.81
2018-08-24T06:38:13.533Z,50.59
2018-08-24T06:40:48.483Z,49.27
2018-08-24T06:43:26.423Z,50.90
2018-08-24T06:46:02.653Z,50.35
2018-08-24T06:48:40.284Z,49.98
2018-08-24T06:51:17.617Z,50.47
2018-08-24T06:56:40.457Z,49.44
2018-08-24T06:59:25.582Z,50.10
2018-08-24T07:02:04.746Z,49.82
2018-08-24T07:04:48.478Z,50.48
2018-08-24T07:10:09.040Z,49.71
2018-08-24T07:12:51.214Z,48.57
2018-08-24T07:15:27.230Z,48.62
2018-08-24T07:18:06.248Z,48.59
2018-08-24T07:20:54.811Z,47.05
2018-08-24T07:23:31.573Z,47.72
2018-08-24T07:26:07.266Z,47.25
2018-08-24T07:28:46.514Z,47.35
2018-08-24T07:31:22.809Z,47.99
2018-08-24T07:34:04.430Z,47.08
2018-08-24T07:36:40.228Z,47.32
2018-08-24T07:39:21.631Z,47.44
2018-08-24T07:41:59.368Z,47.44
2018-08-24T07:44:41.310Z,46.63
2018-08-24T07:47:23.703Z,46.83
2018-08-24T07:49:59.154Z,45.19
2018-08-24T07:52:35.584Z,46.01
2018-08-24T07:58:01.739Z,45.97
2018-08-24T08:00:42.444Z,44.53
2018-08-24T08:03:20.808Z,44.60
2018-08-24T08:06:03.069Z,45.09
2018-08-24T08:08:50.681Z,44.34
2018-08-24T08:11:25.016Z,43.32
2018-08-24T08:14:04.723Z,42.52
2018-08-24T08:16:52.935Z,43.66
2018-08-24T08:19:32.335Z,42.70
2018-08-24T08:22:12.157Z,43.25
2018-08-24T08:24:54.380Z,42.63
2018-08-24T08:27:30.388Z,43.79
2018-08-24T08:30:06.231Z,43.21
2018-08-24T08:32:44.395Z,41.24
2018-08-24T08:35:23.631Z,42.48
2018-08-24T08:38:03.693Z,42.04
2018-08-24T08:40:42.009Z,42.49
2018-08-24T08:43:18.792Z,42.34
2018-08-24T08:45:58.758Z,42.44
2018-08-24T08:48:42.095Z,42.10
2018-08-24T08:51:21.804Z,40.83
2018-08-24T08:54:01.153Z,41.26
2018-08-24T08:59:20.760Z,39.20
2018-08-24T09:01:59.785Z,41.52
2018-08-24T09:04:44.937Z,41.31
2018-08-24T09:07:27.477Z,40.13
2018-08-24T09:10:05.496Z,40.08
2018-08-24T09:12:45.346Z,39.91
2018-08-24T09:15:22.513Z,39.21
2018-08-24T09:18:06.912Z,38.48
2018-08-24T09:20:58.808Z,38.87
2018-08-24T09:26:28.551Z,37.71
2018-08-24T09:29:11.035Z,37.77
2018-08-24T09:31:47.826Z,36.82
2018-08-24T09:34:31.220Z,37.05
2018-08-24T09:37:43.431Z,37.94
2018-08-24T09:40:24.866Z,35.38
2018-08-24T09:43:03.388Z,35.94
2018-08-24T09:48:27.465Z,36.09
2018-08-24T09:51:08.401Z,35.40
2018-08-24T09:53:47.949Z,34.69
2018-08-24T09:56:23.343Z,36.73
2018-08-24T09:59:09.503Z,35.89
2018-08-24T10:01:48.620Z,35.08
2018-08-24T10:04:29.737Z,35.56
2018-08-24T10:07:12.643Z,35.86
2018-08-24T10:09:47.305Z,35.15
2018-08-24T10:12:25.201Z,34.53
2018-08-24T10:15:04.310Z,34.22
2018-08-24T10:17:43.099Z,33.30
2018-08-24T10:20:24.196Z,32.70
2018-08-24T10:23:02.276Z,32.20
2018-08-24T10:25:40.859Z,32.06
2018-08-24T10:28:20.723Z,32.15
2018-08-24T10:31:03.302Z,33.02
2018-08-24T10:33:45.581Z,34.10
2018-08-24T10:36:29.950Z,31.83
2018-08-24T10:39:10.029Z,31.14
2018-08-24T10:41:43.854Z,31.46
2018-08-24T10:44:21.870Z,33.63
2018-08-24T10:46:58.627Z,33.93
2018-08-24T10:49:43.572Z,33.82
2018-08-24T10:52:25.647Z,33.17
2018-08-24T10:55:07.391Z,31.95
2018-08-24T10:57:44.336Z,34.50
2018-08-24T11:00:23.080Z,31.65
2018-08-24T11:03:08.393Z,33.96
2018-08-24T11:08:31.940Z,33.47
2018-08-24T11:11:10.264Z,34.02
2018-08-24T11:13:52.007Z,32.42
2018-08-24T11:16:32.617Z,34.39
2018-08-24T11:19:16.028Z,33.47
2018-08-24T11:21:57.394Z,34.91
2018-08-24T11:24:30.162Z,33.66
2018-08-24T11:29:54.600Z,32.28
2018-08-24T11:32:31.937Z,33.16
2018-08-24T11:35:06.625Z,34.69
2018-08-24T11:37:49.309Z,36.53
2018-08-24T11:40:35.468Z,37.58
2018-08-24T11:43:15.972Z,41.48
2018-08-24T11:45:57.090Z,42.92
2018-08-24T11:48:32.268Z,44.82
2018-08-24T11:51:07.709Z,46.29
2018-08-24T11:53:51.984Z,46.76
2018-08-24T11:56:37.904Z,49.21
2018-08-24T11:59:19.563Z,47.08
2018-08-24T12:02:01.672Z,48.70
2018-08-24T12:04:44.101Z,46.44
2018-08-24T12:07:24.228Z,47.81
2018-08-24T12:10:05.346Z,47.06
2018-08-24T12:12:41.661Z,46.52
2018-08-24T12:15:20.111Z,46.84
2018-08-24T12:17:57.204Z,47.27
2018-08-24T12:20:33.792Z,48.35
2018-08-24T12:23:14.516Z,51.36
2018-08-24T12:25:50.520Z,51.88
2018-08-24T12:28:34.782Z,52.30
2018-08-24T12:31:16.532Z,50.26
2018-08-24T12:33:55.072Z,51.72
2018-08-24T12:36:31.498Z,53.94
2018-08-24T12:39:21.423Z,55.12
2018-08-24T12:42:01.926Z,54.14
2018-08-24T12:44:41.169Z,53.69
2018-08-24T12:47:20.274Z,53.57
2018-08-24T12:50:01.313Z,53.40
2018-08-24T12:52:40.006Z,53.73
2018-08-24T12:55:13.186Z,53.65
2018-08-24T12:57:55.150Z,53.01
2018-08-24T13:00:36.064Z,51.38
2018-08-24T13:03:15.145Z,49.10
2018-08-24T13:05:54.405Z,51.04
2018-08-24T13:11:15.137Z,47.49
2018-08-24T13:13:49.140Z,47.62
2018-08-24T13:16:30.777Z,47.73
2018-08-24T13:19:05.928Z,45.84
2018-08-24T13:21:45.323Z,46.96
2018-08-24T13:24:25.219Z,45.14
2018-08-24T13:27:03.830Z,45.19
2018-08-24T13:29:50.593Z,45.45
2018-08-24T13:32:28.777Z,45.87
2018-08-24T13:35:02.260Z,45.20
2018-08-24T13:37:40.801Z,45.20
2018-08-24T13:40:22.401Z,44.18
2018-08-24T13:42:58.761Z,44.36
2018-08-24T13:45:41.498Z,43.91
2018-08-24T13:48:17.540Z,44.41
2018-08-24T13:51:00.108Z,45.32
2018-08-24T13:56:28.173Z,44.54
2018-08-24T13:59:05.572Z,45.40
2018-08-24T14:01:45.099Z,45.72
2018-08-24T14:04:27.018Z,45.57
2018-08-24T14:07:06.790Z,43.84
2018-08-24T14:09:47.477Z,43.46
2018-08-24T14:12:23.646Z,45.07
2018-08-24T14:15:04.631Z,44.38
2018-08-24T14:17:38.580Z,45.07
2018-08-24T14:20:23.415Z,44.01
2018-08-24T14:23:02.827Z,45.58
2018-08-24T14:25:40.740Z,45.10
2018-08-24T14:28:19.981Z,44.33
2018-08-24T14:31:03.968Z,43.90
2018-08-24T14:33:39.830Z,43.94
2018-08-24T14:36:22.729Z,45.31
2018-08-24T14:39:01.641Z,48.46
2018-08-24T14:41:42.124Z,49.38
2018-08-24T14:44:20.943Z,51.66
2018-08-24T14:47:05.673Z,55.47
2018-08-24T14:49:42.298Z,56.60
2018-08-24T14:52:25.405Z,58.90
2018-08-24T14:55:07.134Z,57.47
2018-08-24T14:57:49.079Z,57.50
2018-08-24T15:00:32.514Z,58.26
2018-08-24T15:03:13.978Z,58.72
2018-08-24T15:05:48.622Z,59.04
2018-08-24T15:08:28.056Z,57.95
2018-08-24T15:11:06.215Z,58.02
2018-08-24T15:13:42.538Z,58.47
2018-08-24T15:16:22.483Z,59.68
2018-08-24T15:18:59.875Z,59.80
2018-08-24T15:21:35.345Z,59.75
2018-08-24T15:24:11.909Z,59.50
2018-08-24T15:26:51.020Z,59.64
2018-08-24T15:29:28.295Z,59.62
2018-08-24T15:37:37.995Z,59.11
2018-08-24T15:42:59.829Z,59.78
2018-08-24T15:45:39.180Z,61.00
2018-08-24T15:48:18.960Z,60.75
2018-08-24T15:51:02.681Z,60.21
2018-08-24T15:53:45.752Z,60.26
2018-08-24T15:56:22.659Z,59.31
2018-08-24T15:59:01.602Z,60.13
2018-08-24T16:01:38.561Z,60.19
2018-08-24T16:04:16.105Z,60.24
2018-08-24T16:06:57.824Z,61.79
2018-08-24T16:09:33.830Z,60.73
2018-08-24T16:12:11.619Z,60.74
2018-08-24T16:17:32.735Z,59.04
2018-08-24T16:20:16.393Z,58.96
2018-08-24T16:22:54.197Z,59.64
2018-08-24T16:25:31.772Z,61.23
2018-08-24T16:28:08.771Z,61.43
2018-08-24T16:30:49.213Z,62.30
2018-08-24T16:33:28.001Z,61.65
2018-08-24T16:36:03.105Z,61.51
2018-08-24T16:38:38.665Z,61.24
2018-08-24T16:41:15.078Z,62.54
2018-08-24T16:43:51.340Z,61.42
2018-08-24T16:46:26.101Z,60.11
2018-08-24T16:49:05.664Z,60.47
2018-08-24T16:51:44.267Z,60.96
2018-08-24T16:54:25.356Z,60.61
2018-08-24T16:57:04.784Z,60.23
2018-08-24T16:59:46.471Z,62.06
2018-08-24T17:02:28.504Z,62.05
2018-08-24T17:05:02.570Z,61.80
2018-08-24T17:07:44.273Z,62.04
2018-08-24T17:10:22.897Z,59.54
2018-08-24T17:12:56.905Z,60.46
2018-08-24T17:15:34.750Z,62.26
2018-08-24T17:18:17.553Z,62.14
2018-08-24T17:20:56.704Z,62.53
2018-08-24T17:23:34.511Z,62.30
2018-08-24T17:26:13.739Z,61.54
2018-08-24T17:28:52.722Z,62.48
2018-08-24T17:31:36.479Z,62.61
2018-08-24T17:34:13.756Z,63.07
2018-08-24T17:36:56.016Z,64.03
2018-08-24T17:39:33.862Z,63.87
2018-08-24T17:42:10.247Z,63.32
2018-08-24T17:44:48.850Z,62.83
2018-08-24T17:47:21.159Z,62.95
2018-08-24T17:49:56.874Z,62.39
2018-08-24T17:52:34.162Z,62.65
2018-08-24T17:55:17.871Z,62.82
2018-08-24T17:57:58.043Z,62.05
2018-08-24T18:00:38.352Z,62.98
2018-08-24T18:03:16.442Z,62.85
2018-08-24T18:05:51.962Z,63.59
2018-08-24T18:08:31.687Z,64.07
2018-08-24T18:11:10.148Z,63.23
2018-08-24T18:13:51.313Z,63.22
2018-08-24T18:16:27.959Z,63.64
2018-08-24T18:19:05.386Z,63.30
2018-08-24T18:21:43.890Z,64.35
2018-08-24T18:24:25.853Z,64.21
2018-08-24T18:27:03.855Z,64.66
2018-08-24T18:29:40.549Z,64.97
2018-08-24T18:32:20.068Z,64.40
2018-08-24T18:34:56.863Z,64.66
2018-08-24T18:37:34.757Z,63.72
2018-08-24T18:40:12.802Z,63.94
2018-08-24T18:42:52.616Z,63.99
2018-08-24T18:45:31.397Z,64.21
2018-08-24T18:48:11.939Z,64.21
2018-08-24T18:50:54.072Z,63.28
2018-08-24T18:53:30.102Z,64.46
2018-08-24T18:56:04.050Z,64.00
2018-08-24T18:58:48.351Z,64.70
2018-08-24T19:01:28.570Z,65.15
2018-08-24T19:04:08.061Z,65.34
2018-08-24T19:06:47.279Z,65.07
2018-08-24T19:09:24.057Z,64.71
2018-08-24T19:12:03.818Z,64.84
2018-08-24T19:14:41.042Z,64.50
2018-08-24T19:17:25.700Z,63.78
2018-08-24T19:20:11.465Z,63.09
2018-08-24T19:22:54.584Z,63.89
2018-08-24T19:25:40.075Z,64.09
2018-08-24T19:28:20.919Z,63.11
2018-08-24T19:31:02.660Z,64.14
2018-08-24T19:33:46.551Z,63.94
2018-08-24T19:39:07.044Z,64.83
2018-08-24T19:41:47.191Z,64.92
2018-08-24T19:44:21.496Z,64.75
2018-08-24T19:47:00.841Z,65.81
2018-08-24T19:49:39.634Z,66.47
2018-08-24T19:52:14.442Z,66.60
2018-08-24T19:54:52.047Z,66.49
2018-08-24T19:57:32.576Z,65.36
2018-08-24T20:00:05.809Z,65.63
2018-08-24T20:02:43.229Z,65.91
2018-08-24T20:05:19.116Z,66.75
2018-08-24T20:07:58.761Z,65.86
2018-08-24T20:10:40.325Z,66.03
2018-08-24T20:13:19.327Z,65.80
2018-08-24T20:16:02.285Z,64.82
2018-08-24T20:18:49.069Z,65.01
2018-08-24T20:21:31.487Z,64.62
2018-08-24T20:24:11.030Z,65.81
2018-08-24T20:26:52.361Z,65.43
2018-08-24T20:29:38.181Z,65.19
2018-08-24T20:32:20.473Z,65.54
2018-08-24T20:34:54.153Z,64.99
2018-08-24T20:37:29.361Z,64.64
2018-08-24T20:40:05.080Z,65.13
2018-08-24T20:42:47.318Z,65.26
2018-08-24T20:45:28.240Z,66.24
2018-08-24T20:48:06.672Z,66.29
2018-08-24T20:50:42.608Z,66.96
2018-08-24T20:53:17.837Z,68.10
2018-08-24T20:55:56.377Z,67.50
2018-08-24T20:58:37.246Z,66.42
2018-08-24T21:01:13.332Z,67.53
2018-08-24T21:06:40.485Z,66.73
2018-08-24T21:09:16.869Z,67.27
2018-08-24T21:11:55.787Z,67.87
2018-08-24T21:14:36.550Z,67.60
2018-08-24T21:17:24.994Z,67.96
2018-08-24T21:20:01.947Z,66.17
2018-08-24T21:22:45.911Z,66.08
2018-08-24T21:25:20.985Z,65.62
2018-08-24T21:27:58.869Z,64.91
2018-08-24T21:30:39.157Z,64.49
2018-08-24T21:33:22.061Z,64.57
2018-08-24T21:36:03.629Z,64.54
2018-08-24T21:38:47.587Z,65.11
2018-08-24T21:41:28.562Z,64.86
2018-08-24T21:46:51.765Z,65.17
2018-08-24T21:49:29.852Z,65.31
2018-08-24T21:52:13.748Z,63.76
2018-08-24T21:54:51.022Z,64.64
2018-08-24T21:57:33.425Z,64.89
2018-08-24T22:00:07.445Z,66.18
2018-08-24T22:02:47.136Z,66.26
2018-08-24T22:05:29.144Z,65.03
2018-08-24T22:08:06.326Z,65.27
2018-08-24T22:10:41.819Z,65.33
2018-08-24T22:13:25.823Z,64.64
2018-08-24T22:15:59.835Z,64.39
2018-08-24T22:18:36.204Z,64.28
2018-08-24T22:21:18.810Z,64.12
2018-08-24T22:24:00.809Z,65.19
2018-08-24T22:26:42.712Z,65.45
2018-08-24T22:29:17.917Z,66.52
2018-08-24T22:31:55.573Z,65.96
2018-08-24T22:35:08.286Z,66.32
2018-08-24T22:37:52.437Z,66.04
2018-08-24T22:43:14.868Z,67.08
2018-08-24T22:45:49.830Z,67.45
2018-08-24T22:48:36.634Z,66.63
2018-08-24T22:51:18.720Z,65.71
2018-08-24T22:53:56.400Z,65.30
2018-08-24T22:56:35.898Z,66.22
2018-08-24T22:59:10.358Z,66.93
2018-08-24T23:01:47.929Z,66.80
2018-08-24T23:04:27.205Z,66.69
2018-08-24T23:07:08.141Z,65.84
2018-08-24T23:09:48.385Z,66.38
2018-08-24T23:12:25.760Z,65.80
2018-08-24T23:15:00.758Z,65.70
2018-08-24T23:17:40.297Z,65.87
2018-08-24T23:20:21.327Z,65.70
2018-08-24T23:23:01.596Z,65.85
2018-08-24T23:25:38.127Z,65.66
2018-08-24T23:28:14.599Z,65.86
2018-08-24T23:30:54.012Z,66.09
2018-08-24T23:33:33.031Z,67.08
2018-08-24T23:36:14.912Z,67.14
2018-08-24T23:38:55.787Z,67.27
2018-08-24T23:41:30.780Z,67.34
2018-08-24T23:44:12.871Z,67.30
2018-08-24T23:46:56.606Z,67.55
2018-08-24T23:49:33.171Z,67.11
2018-08-24T23:55:02.675Z,65.18
2018-08-24T23:57:43.673Z,64.48
